Details From MUCU - Santiago De Cuba Antonio Maceo Intl
To MKJP - Norman Manley Intl
Flight Number -
Tags Decoded
Created
Modified
Stats Distance 137 nm / 253 km
Max Altitude 0 ft / 0 m
Waypoints 5
Social Downloads 5
Likes 0
Share VATSIM

Download

Looking for another format? Having issues loading an existing format? Contact us
Advertisement - Login to hide

Notes

Decoded

Route

MUCU UCU VIKRO MLY MKJP

ID Type Via Altitude Latitude Longitude Leg Dist Tot Dist Heading (true) Name
O MUCU APT - 0 ft / 0 m 19.98075˚ -75.83554˚ - 0 nm - -
UCU NDB - 0 ft / 0 m 19.97289˚ -75.82092˚ 0 nm 0 nm 120° / 120° -
VIKRO FIX - 0 ft / 0 m 19.01556˚ -76.27472˚ 62 nm 63 nm 204° / 204° -
MLY VOR - 0 ft / 0 m 17.93025˚ -76.77764˚ 71 nm 135 nm 204° / 204° MANLEY VOR-DME
O MKJP APT - 0 ft / 0 m 17.94026˚ -76.79945˚ 1 nm 136 nm 296° / 296° -

Altitude Profile

Advertisement - Login to hide

MUCU

Details ICAO MUCU (SCU)
Name Santiago de Cuba Antonio Maceo Intl
Region Cuba
Timezone America/Havana (UTC-4.0)
Stats Elevation 249 ft / 76 m (AMSL)
Location 19.972337° -75.835517°
Runways 2
Magnetic Variation 8.447° W

METAR

MUCU 271551Z 17013KT 9000 FEW018 SCT070 30/21 Q1015

Decode

TAF

TAF AMD MUCU 270900Z 2709/2806 14010KT 9000 FEW020 BKN080 TEMPO 2709/2717 3000 RA SCT020CB BKN070 TEMPO 2718/2724 3000 TSRA RA SCT015CB BKN020 BECMG 2801/2803 VRB03KT

Decode

Departure Runways

ID Width Length Bearing (true) Bearing (mag) Surface Threshold Offset Overrun Length
09 148 ft / 45 m 13,107 ft / 3,995 m 89.29° 97.74° Asphalt 985 ft / 300 m 0 ft / 0 m
18 148 ft / 45 m 4,272 ft / 1,302 m 179.40° 187.85° Asphalt 0 ft / 0 m 0 ft / 0 m
27 148 ft / 45 m 13,107 ft / 3,995 m 269.30° 277.75° Asphalt 980 ft / 299 m 340 ft / 104 m
36 148 ft / 45 m 4,272 ft / 1,302 m 359.40° 7.85° Asphalt 0 ft / 0 m 0 ft / 0 m

MKJP

Details ICAO MKJP (KIN)
Name Norman Manley Intl
Region Jamaica
Timezone Unknown (UTC+0.0)
Stats Elevation 10 ft / 3 m (AMSL)
Location 17.935665° -76.787560°
Runways 1
Magnetic Variation 7.591° W

METAR

MKJP 271600Z 13020KT 9999 FEW020 BKN070 29/25 Q1013

Decode

TAF

TAF MKJP 271115Z 2712/2812 13020KT 9999 SCT022= TAF MKJS 271115Z 2712/2812 18005KT 9999 SCT022 TEMPO 2713/2718 8000 TSRA SCT018 BKN020CB

Decode

Destination Runways

ID Width Length Bearing (true) Bearing (mag) Surface Threshold Offset Overrun Length
12 150 ft / 46 m 8,912 ft / 2,717 m 112.09° 119.68° Asphalt 0 ft / 0 m 0 ft / 0 m
30 150 ft / 46 m 8,912 ft / 2,717 m 292.10° 299.69° Asphalt 0 ft / 0 m 0 ft / 0 m

Approach Navaids

Runway Type Ident Frequency Range Bearing (true) Bearing (mag) Slope Elevation
12 Localiser IMLY 109.10 MHz 18 nm / 33 km 115.09° 122.68° - 10 ft / 3 m (AMSL)
12 Glidescope IMLY 109.10 MHz 10 nm / 19 km 115.09° 122.68° 3.00° 8 ft / 2 m (AMSL)

Popular Alternatives